McKees Rocks, Pennsylvania
Current Conditions -  °F | °C
As of 10:51 AM on Sunday 23 Nov 2014 (Local Time) from KPIT Reporting Station
Broken Clouds Broken Clouds  
Wind Chill: 56°   Ceiling: 10000
Heat Index: 56°   Visibility: 10mi
Dew Point: 34°   Wind: 8mph
Humidity: 44%   Direction: 170°S
Pressure: 30.05"   Gusts: NA
Location:  40.4648°N, 80.1115°W
Report Text: KPIT 231551Z 17007KT 10SM BKN100 BKN250 13/01 A3005 RMK AO2 SLP184 T01330011
Loading
Personal Weather Stations






























Interactive Weather Map New forecast layout! Learn more

10-Day Weather Forecast

Advertisements
Track Severe Weather on mobile